Latest Weather Observations for Busselton Airport

IDW60801

Issued at 9:33 am WST Sunday 31 July 2016 (issued every 30 minutes, with the page automatically refreshed every 10 minutes)

About weather observations | Map of weather stations | Latest weather observations for WA | Other Formats
Station Details ID: 009603 Name: BUSSELTON AERO Lat: -33.69 Lon: 115.40 Height: 16.3 m
Data from the previous 72 hours. | See also: Recent months at Busselton Airport
Date/Time
WST
Temp
°C
App
Temp
°C
Dew
Point
°C
Rel
Hum
%
Delta-T
°C
Wind Press
QNH
hPa
Press
MSL
hPa
Rain since
9am
mm
Dir  Spd
km/h
Gust
km/h
Spd
kts
Gust
kts
31/09:30am 12.5 6.1 3.2 53 4.1 SW 26 35 14 19 1018.1 1018.1 0.0
31/09:00am 11.8 6.3 4.1 59 3.4 SW 22 32 12 17 1017.4 1017.4 3.0
31/08:30am 10.6 5.2 4.3 65 2.8 SW 22 30 12 16 1016.7 1016.7 3.0
31/08:00am 10.0 5.2 4.4 68 2.5 SW 19 28 10 15 1016.0 1016.0 3.0
31/07:30am 9.3 0.1 5.5 77 1.7 SW 43 61 23 33 1015.8 1015.8 3.0
31/07:04am 10.3 3.4 6.3 76 1.9 SW 32 48 17 26 1014.6 1014.6 3.0
31/07:00am 10.4 3.5 6.5 77 1.8 WSW 32 48 17 26 1014.7 1014.7 3.0
31/06:50am 10.0 3.9 6.5 79 1.6 W 28 48 15 26 1014.4 1014.4 3.0
31/06:30am 10.2 5.4 5.6 73 2.1 WSW 20 30 11 16 1013.5 1013.5 2.4
31/06:00am 10.9 7.9 7.8 81 1.5 W 13 28 7 15 1013.4 1013.4 2.2
31/05:30am 11.5 6.6 6.8 73 2.2 WSW 22 37 12 20 1012.8 1012.8 1.6
31/05:00am 11.6 4.8 6.7 72 2.3 WSW 32 59 17 32 1012.4 1012.4 1.4
31/04:43am 12.5 6.4 6.5 67 2.9 WSW 28 59 15 32 1012.2 1012.2 1.4
31/04:30am 13.5 7.7 6.4 62 3.4 WSW 26 46 14 25 1011.5 1011.5 1.4
31/04:00am 13.5 8.2 6.8 64 3.2 W 24 39 13 21 1011.2 1011.2 1.4
31/03:30am 13.5 7.9 7.3 66 3.0 W 26 37 14 20 1011.1 1011.1 1.4
31/03:15am 13.4 7.4 7.0 65 3.1 W 28 46 15 25 1011.0 1011.0 1.4
31/03:00am 13.3 8.3 8.0 70 2.6 W 24 44 13 24 1011.0 1011.0 1.4
31/02:30am 13.2 6.9 7.4 68 2.8 WSW 30 54 16 29 1011.0 1011.0 1.4
31/02:29am 13.2 7.3 7.4 68 2.8 WSW 28 54 15 29 1011.0 1011.0 1.4
31/02:00am 14.3 7.7 6.2 58 3.9 W 30 46 16 25 1010.7 1010.7 1.4
31/01:52am 14.4 8.4 7.0 61 3.6 W 28 46 15 25 1010.7 1010.7 1.4
31/01:30am 13.8 8.4 9.5 75 2.2 W 28 37 15 20 1010.6 1010.6 1.4
31/01:00am 14.8 9.1 8.5 66 3.2 W 28 39 15 21 1010.5 1010.5 1.2
31/12:30am 14.6 9.9 9.2 70 2.8 W 24 33 13 18 1010.7 1010.7 1.2
31/12:00am 14.1 9.8 10.7 80 1.8 WNW 24 35 13 19 1011.0 1011.0 1.2
 
Date/Time
WST
Temp
°C
App
Temp
°C
Dew
Point
°C
Rel
Hum
%
Delta-T
°C
Wind Press
QNH
hPa
Press
MSL
hPa
Rain since
9am
mm
Dir  Spd
km/h
Gust
km/h
Spd
kts
Gust
kts
30/11:30pm 13.8 9.3 10.0 78 2.0 WNW 24 33 13 18 1011.2 1011.2 1.2
30/11:02pm 14.1 9.3 10.3 78 2.0 W 26 48 14 26 1011.6 1011.6 1.0
30/11:00pm 14.9 10.4 10.1 73 2.5 WNW 24 33 13 18 1011.5 1011.5 0.6
30/10:34pm 15.1 10.0 10.5 74 2.4 NW 28 48 15 26 1011.0 1011.0 0.6
30/10:30pm 15.0 10.7 10.8 76 2.2 NW 24 37 13 20 1011.1 1011.1 0.6
30/10:00pm 14.8 8.1 9.6 71 2.7 NW 35 56 19 30 1011.3 1011.3 0.6
30/09:53pm 15.5 10.0 9.2 66 3.2 WNW 28 46 15 25 1011.5 1011.5 0.6
30/09:30pm 14.4 9.7 9.4 72 2.6 WNW 24 37 13 20 1011.5 1011.5 0.6
30/09:08pm 15.9 9.8 8.4 61 3.8 WNW 30 48 16 26 1011.7 1011.7 0.6
30/09:00pm 15.7 9.5 8.0 60 3.9 WNW 30 46 16 25 1011.5 1011.5 0.6
30/08:36pm 15.8 9.7 8.3 61 3.8 NW 30 48 16 26 1011.6 1011.6 0.6
30/08:30pm 15.7 9.0 8.2 61 3.8 WNW 33 48 18 26 1011.6 1011.6 0.6
30/08:11pm 15.9 9.3 8.6 62 3.7 WNW 33 61 18 33 1011.4 1011.4 0.6
30/08:00pm 16.0 9.6 8.5 61 3.8 NW 32 48 17 26 1011.5 1011.5 0.6
30/07:45pm 15.7 10.1 8.7 63 3.6 NW 28 46 15 25 1011.4 1011.4 0.6
30/07:30pm 15.3 9.0 8.8 65 3.3 NW 32 48 17 26 1011.4 1011.4 0.6
30/07:23pm 15.2 9.6 8.9 66 3.2 WNW 28 48 15 26 1011.5 1011.5 0.6
30/07:00pm 14.4 11.1 10.8 79 1.9 NW 19 28 10 15 1011.8 1011.8 0.6
30/06:30pm 14.1 8.5 10.1 77 2.1 WNW 30 43 16 23 1012.0 1012.0 0.6
30/06:15pm 15.5 10.3 10.3 71 2.7 NW 28 46 15 25 1011.8 1011.8 0.2
30/06:00pm 15.7 9.7 10.2 70 2.9 NW 32 44 17 24 1011.3 1011.3 0.2
30/05:30pm 15.6 10.5 9.1 65 3.3 NW 26 41 14 22 1011.5 1011.5 0.2
30/05:00pm 15.7 10.9 8.7 63 3.6 WNW 24 37 13 20 1011.8 1011.8 0.2
30/04:35pm 15.0 9.1 10.4 74 2.4 WNW 32 50 17 27 1011.8 1011.8 0.2
30/04:30pm 15.2 9.3 11.0 76 2.2 NW 33 50 18 27 1012.0 1012.0 0.2
30/04:09pm 15.9 10.3 10.2 69 3.0 NW 30 48 16 26 1011.6 1011.6 0.0
30/04:00pm 16.3 10.3 10.2 67 3.2 NW 32 46 17 25 1011.6 1011.6 0.0
30/03:30pm 16.3 10.1 9.5 64 3.5 NW 32 48 17 26 1011.8 1011.8 0.0
30/03:17pm 16.5 10.2 9.0 61 3.9 NW 32 52 17 28 1012.0 1012.0 0.0
30/03:00pm 16.5 10.1 9.2 62 3.8 NW 33 44 18 24 1012.0 1012.0 0.0
30/02:47pm 16.7 11.2 9.1 61 3.9 NW 28 48 15 26 1012.0 1012.0 0.0
30/02:30pm 17.0 11.7 9.7 62 3.8 NW 28 44 15 24 1012.1 1012.1 0.0
30/02:00pm 15.1 9.2 11.1 77 2.1 NW 33 52 18 28 1012.5 1012.5 0.0
30/01:52pm 16.0 9.8 10.1 68 3.1 NW 33 52 18 28 1012.4 1012.4 0.0
30/01:30pm 16.9 11.6 11.4 70 3.0 NW 30 43 16 23 1012.4 1012.4 0.0
30/01:00pm 17.1 10.6 10.2 64 3.7 NW 35 48 19 26 1012.8 1012.8 0.0
30/12:30pm 16.4 10.9 9.3 63 3.7 NW 28 41 15 22 1013.4 1013.4 0.0
30/12:00pm 16.5 11.1 9.4 63 3.7 NW 28 39 15 21 1013.8 1013.8 0.0
30/11:30am 16.9 10.8 9.8 63 3.7 NW 32 44 17 24 1014.0 1014.0 0.0
30/11:00am 16.9 11.2 8.3 57 4.4 NW 28 41 15 22 1014.4 1014.4 0.0
30/10:30am 16.4 11.9 8.6 60 4.0 NW 22 28 12 15 1014.7 1014.7 0.0
30/10:00am 15.9 12.3 8.4 61 3.8 WNW 17 24 9 13 1015.0 1015.0 0.0
30/09:30am 15.5 11.2 7.8 60 3.8 WNW 20 32 11 17 1014.9 1014.9 0.0
30/09:00am 14.8 12.0 8.7 67 3.1 WNW 13 19 7 10 1014.8 1014.8 2.0
30/08:30am 14.5 11.3 8.5 67 3.0 WNW 15 20 8 11 1014.6 1014.6 2.0
30/08:00am 12.7 11.0 8.2 74 2.2 NNW 7 9 4 5 1014.3 1014.3 2.0
30/07:30am 12.5 10.3 7.8 73 2.3 NW 9 11 5 6 1014.2 1014.2 2.0
30/07:00am 12.2 9.9 7.5 73 2.3 WNW 9 13 5 7 1014.1 1014.1 2.0
30/06:30am 13.4 10.1 8.0 70 2.7 WNW 15 24 8 13 1014.0 1014.0 2.0
30/06:00am 12.2 10.2 7.1 71 2.5 WNW 7 13 4 7 1013.9 1013.9 2.0
30/05:30am 12.2 9.9 7.3 72 2.4 WNW 9 15 5 8 1013.8 1013.8 2.0
30/05:00am 12.4 9.6 6.9 69 2.6 WNW 11 17 6 9 1013.6 1013.6 2.0
30/04:30am 13.0 10.2 7.0 67 2.9 W 11 22 6 12 1013.5 1013.5 2.0
30/04:00am 11.3 8.9 5.2 66 2.8 NW 7 9 4 5 1013.4 1013.4 2.0
30/03:30am 12.5 9.3 5.2 61 3.4 W 11 15 6 8 1013.4 1013.4 2.0
30/03:00am 13.6 8.8 4.7 55 4.1 W 19 26 10 14 1013.4 1013.4 2.0
30/02:30am 13.7 9.8 7.0 64 3.3 W 17 24 9 13 1013.3 1013.3 2.0
30/02:00am 14.3 10.6 7.8 65 3.2 W 17 26 9 14 1013.2 1013.2 2.0
30/01:30am 14.0 11.2 8.4 69 2.8 W 13 20 7 11 1013.1 1013.1 2.0
30/01:00am 14.4 8.6 8.1 66 3.1 W 28 54 15 29 1013.1 1013.1 2.0
30/12:59am 14.4 8.6 8.1 66 3.1 W 28 54 15 29 1013.1 1013.1 2.0
30/12:30am 14.4 10.3 8.8 69 2.8 W 20 30 11 16 1013.0 1013.0 2.0
30/12:14am 14.4 8.7 8.4 67 3.0 W 28 48 15 26 1013.0 1013.0 2.0
30/12:10am 14.6 9.2 8.1 65 3.2 W 26 48 14 26 1013.1 1013.1 2.0
30/12:00am 15.0 10.9 8.0 63 3.5 W 19 30 10 16 1012.8 1012.8 2.0
 
Date/Time
WST
Temp
°C
App
Temp
°C
Dew
Point
°C
Rel
Hum
%
Delta-T
°C
Wind Press
QNH
hPa
Press
MSL
hPa
Rain since
9am
mm
Dir  Spd
km/h
Gust
km/h
Spd
kts
Gust
kts
29/11:30pm 15.2 10.1 7.7 61 3.7 W 24 37 13 20 1012.7 1012.7 2.0
29/11:00pm 15.6 9.9 8.4 62 3.6 W 28 48 15 26 1012.5 1012.5 2.0
29/10:58pm 15.6 9.8 8.1 61 3.8 W 28 48 15 26 1012.5 1012.5 2.0
29/10:30pm 15.3 10.6 7.6 60 3.8 W 22 32 12 17 1012.2 1012.2 2.0
29/10:00pm 15.4 10.7 7.9 61 3.8 W 22 35 12 19 1012.0 1012.0 2.0
29/09:30pm 15.6 10.4 8.8 64 3.5 W 26 44 14 24 1011.6 1011.6 2.0
29/09:00pm 16.0 10.0 10.1 68 3.1 W 32 48 17 26 1011.1 1011.1 2.0
29/08:55pm 16.1 11.0 10.6 70 2.9 W 28 48 15 26 1011.0 1011.0 2.0
29/08:30pm 15.5 10.3 13.3 87 1.2 WNW 33 48 18 26 1010.8 1010.8 2.0
29/08:17pm 15.6 8.9 13.4 87 1.2 WNW 41 72 22 39 1010.3 1010.3 2.0
29/08:07pm 16.5 9.5 13.8 84 1.5 NW 43 76 23 41 1009.8 1009.8 1.8
29/08:00pm 17.4 11.9 13.7 79 2.1 NW 35 56 19 30 1009.3 1009.3 1.4
29/07:30pm 17.5 12.9 13.4 77 2.3 NW 30 41 16 22 1009.4 1009.4 1.4
29/07:07pm 17.5 11.9 13.4 77 2.3 NW 35 56 19 30 1009.5 1009.5 1.4
29/07:00pm 17.6 12.4 13.5 77 2.3 NW 33 46 18 25 1009.3 1009.3 1.4
29/06:41pm 17.3 12.7 13.4 78 2.2 NW 30 48 16 26 1009.2 1009.2 1.4
29/06:30pm 17.4 12.2 13.3 77 2.3 NW 33 44 18 24 1009.0 1009.0 1.4
29/06:00pm 17.5 13.3 13.4 77 2.3 NW 28 37 15 20 1008.8 1008.8 1.4
29/05:30pm 17.5 12.9 13.4 77 2.3 NW 30 43 16 23 1008.5 1008.5 1.4
29/05:00pm 17.5 12.4 13.6 78 2.2 NW 33 46 18 25 1008.4 1008.4 1.4
29/04:30pm 18.0 12.5 13.7 76 2.4 NW 35 52 19 28 1008.2 1008.2 1.4
29/04:25pm 18.1 13.0 13.8 76 2.5 NW 33 52 18 28 1008.1 1008.1 1.4
29/04:00pm 18.3 13.2 13.6 74 2.7 NW 33 48 18 26 1007.9 1007.9 1.4
29/03:38pm 18.5 12.2 13.6 73 2.8 NW 39 57 21 31 1007.5 1007.5 1.4
29/03:30pm 18.6 11.8 13.0 70 3.2 NW 41 56 22 30 1007.4 1007.4 1.4
29/03:00pm 19.1 12.3 13.1 68 3.4 NW 41 63 22 34 1006.9 1006.9 1.4
29/02:41pm 19.0 12.5 15.1 78 2.3 NW 43 61 23 33 1006.7 1006.7 1.4
29/02:30pm 19.9 13.8 16.2 79 2.2 NW 43 59 23 32 1006.5 1006.5 1.4
29/02:00pm 19.4 14.5 18.2 93 0.7 NNW 41 59 22 32 1006.4 1006.4 1.4
29/01:40pm 18.2 14.1 17.4 95 0.5 N 35 54 19 29 1006.5 1006.5 1.4
29/01:30pm 18.7 14.6 18.2 97 0.3 N 37 50 20 27 1006.6 1006.6 1.0
29/01:00pm 17.1 13.2 16.9 99 0.1 N 33 46 18 25 1007.1 1007.1 0.8
29/12:30pm 17.9 14.6 16.9 94 0.6 N 30 41 16 22 1008.2 1008.2 0.4
29/12:00pm 17.1 13.1 15.3 89 1.1 N 30 41 16 22 1009.3 1009.3 0.4
29/11:30am 16.5 13.0 15.4 93 0.6 N 28 41 15 22 1010.3 1010.3 0.4
29/11:00am 15.4 13.0 14.3 93 0.6 N 20 30 11 16 1011.1 1011.1 0.2
29/10:30am 15.2 11.0 12.3 83 1.6 NNE 26 37 14 20 1011.4 1011.4 0.2
29/10:00am 15.4 11.4 11.8 79 1.9 NNE 24 35 13 19 1011.5 1011.5 0.0
29/09:30am 15.1 11.1 11.7 80 1.8 NNE 24 33 13 18 1011.9 1011.9 0.0
29/09:00am 13.9 11.4 12.3 90 0.9 NE 17 22 9 12 1012.6 1012.6 0.0
29/08:30am 13.5 10.8 13.5 100 0.0 NNE 20 28 11 15 1013.2 1013.2 0.0
29/08:00am 11.5 10.3 11.5 100 0.0 ENE 9 11 5 6 1013.6 1013.6 0.0
29/07:30am 11.1 10.1 11.1 100 0.0 NE 7 9 4 5 1014.0 1014.0 0.0
29/07:00am 10.8 9.4 10.8 100 0.0 ENE 9 9 5 5 1013.8 1013.8 0.0
29/06:30am 10.7 9.2 10.7 100 0.0 NE 9 11 5 6 1014.1 1014.1 0.0
29/06:00am 10.4 8.5 10.4 100 0.0 ENE 11 13 6 7 1014.1 1014.1 0.0
29/05:30am 9.5 8.1 9.5 100 0.0 ENE 7 7 4 4 1014.7 1014.7 0.0
29/05:00am 8.9 7.3 8.8 99 0.0 SE 7 9 4 5 1014.9 1014.9 0.0
29/04:30am 8.7 7.2 8.6 99 0.0 S 6 7 3 4 1015.3 1015.3 0.0
29/04:00am 9.0 7.4 8.9 99 0.0 SW 7 9 4 5 1016.1 1016.1 0.0
29/03:30am 9.2 9.0 9.2 100 0.0 CALM 0 0 0 0 1016.5 1016.5 0.0
29/03:00am 7.6 5.7 7.5 99 0.0 SSE 7 9 4 5 1016.6 1016.6 0.0
29/02:30am 7.4 6.8 7.3 99 0.0 CALM 0 0 0 0 1017.2 1017.2 0.0
29/02:00am 9.0 8.8 8.9 99 0.0 CALM 0 0 0 0 1017.5 1017.5 0.0
29/01:30am 9.1 7.7 9.0 99 0.0 SE 6 7 3 4 1017.6 1017.6 0.0
29/01:00am 8.7 8.4 8.6 99 0.0 CALM 0 0 0 0 1018.0 1018.0 0.0
29/12:30am 9.9 9.9 9.8 99 0.1 CALM 0 0 0 0 1018.3 1018.4 0.0
29/12:00am 9.6 9.5 9.5 99 0.0 CALM 0 7 0 4 1018.5 1018.6 0.0
 
Date/Time
WST
Temp
°C
App
Temp
°C
Dew
Point
°C
Rel
Hum
%
Delta-T
°C
Wind Press
QNH
hPa
Press
MSL
hPa
Rain since
9am
mm
Dir  Spd
km/h
Gust
km/h
Spd
kts
Gust
kts
28/11:30pm 10.4 10.5 10.2 99 0.1 CALM 0 0 0 0 1019.0 1019.1 0.0
28/11:00pm 10.7 9.6 10.5 99 0.1 S 7 9 4 5 1019.1 1019.2 0.0
28/10:30pm 11.1 10.6 10.9 99 0.1 SSW 4 7 2 4 1019.6 1019.7 0.0
28/10:00pm 11.0 10.1 10.7 98 0.2 E 6 9 3 5 1019.8 1019.9 0.0
28/09:30pm 11.5 10.1 11.0 97 0.3 ENE 9 11 5 6 1020.0 1020.1 0.0
28/09:00pm 11.0 9.4 10.1 94 0.5 E 9 11 5 6 1020.1 1020.2 0.0
28/08:30pm 11.9 10.5 10.8 93 0.6 SE 9 9 5 5 1020.3 1020.4 0.0
28/08:00pm 12.9 12.0 11.3 90 0.8 SE 7 9 4 5 1020.5 1020.6 0.0
28/07:30pm 14.4 14.1 12.6 89 1.0 SE 6 7 3 4 1020.5 1020.6 0.0
28/07:00pm 15.1 14.9 13.0 87 1.2 SE 6 7 3 4 1020.4 1020.5 0.0
28/06:30pm 15.4 15.6 13.1 86 1.3 S 4 9 2 5 1020.3 1020.4 0.0
28/06:00pm 15.4 15.6 13.2 87 1.2 S 4 7 2 4 1020.0 1020.1 0.0
28/05:30pm 15.6 15.2 12.9 84 1.5 S 7 9 4 5 1019.7 1019.8 0.0
28/05:00pm 16.6 15.5 13.1 80 1.9 S 11 13 6 7 1019.6 1019.7 0.0
28/04:30pm 18.2 18.7 12.9 71 3.0 W 2 9 1 5 1019.5 1019.6 0.0
28/04:00pm 18.0 17.8 13.1 73 2.7 N 6 9 3 5 1019.3 1019.4 0.0
28/03:30pm 18.0 16.3 13.5 75 2.5 N 15 19 8 10 1019.5 1019.6 0.0
28/03:00pm 18.5 17.4 13.1 71 3.0 NNW 11 15 6 8 1019.2 1019.3 0.0
28/02:30pm 18.6 17.2 13.5 72 2.9 N 13 17 7 9 1019.1 1019.2 0.0
28/02:00pm 18.3 17.1 12.7 70 3.1 NNW 11 15 6 8 1019.1 1019.2 0.0
28/01:30pm 18.5 17.8 13.1 71 3.0 NNW 9 13 5 7 1019.5 1019.6 0.0
28/01:00pm 17.8 17.0 12.9 73 2.7 NNW 9 13 5 7 1019.9 1020.0 0.0
28/12:30pm 18.3 17.6 13.2 72 2.9 NNW 9 13 5 7 1020.4 1020.5 0.0
28/12:00pm 17.7 16.9 12.8 73 2.7 NNE 9 17 5 9 1020.9 1021.0 0.0
28/11:30am 17.0 15.2 12.1 73 2.7 N 13 17 7 9 1021.3 1021.4 0.0
28/11:00am 17.0 16.0 12.3 74 2.6 N 9 13 5 7 1021.7 1021.8 0.0
28/10:30am 16.5 16.1 12.3 76 2.3 NE 6 9 3 5 1022.0 1022.1 0.0
28/10:00am 14.6 13.1 10.4 76 2.2 NE 9 11 5 6 1022.2 1022.3 0.0

Other Formats:

Comma delimited format used in spreadsheet applications
http://www.bom.gov.au/fwo/IDW60801/IDW60801.95611.axf

JavaScript Object Notation format (JSON) in row-major order
http://www.bom.gov.au/fwo/IDW60801/IDW60801.95611.json